Time;durP1;ratioP1;P1;durP2;ratioP2;P2;SDS_P1;SDS_P2;PMS_P1;PMS_P2;Temp;Humidity;BMP_temperature;BMP_pressure;BME280_temperature;BME280_humidity;BME280_pressure;Samples;Min_cycle;Max_cycle;Signal;HPM_P1;HPM_P2
2023/04/02 00:00:16;;;;;;;7.15;6.45;;;;;;;9.09;66.55;100346.63;688279;28;973;-83
2023/04/02 00:01:01;;;;;;;7.30;6.70;;;;;;;9.13;66.38;100352.78;685609;28;1164;-83
2023/04/02 00:01:25;;;;;;;7.30;6.60;;;;;;;9.21;66.71;100366.91;685744;28;1510;-83
2023/04/02 00:01:46;;;;;;;7.20;6.50;;;;;;;9.09;66.54;100353.56;685468;28;1328;-84
2023/04/02 00:02:25;;;;;;;7.30;6.60;;;;;;;9.11;66.55;100359.69;682829;29;1278;-85
2023/04/02 00:02:48;;;;;;;7.85;7.15;;;;;;;9.19;66.54;100371.19;685645;28;985;-82
2023/04/02 00:03:09;;;;;;;8.05;7.35;;;;;;;9.07;66.66;100350.03;685570;28;1103;-83
2023/04/02 00:03:44;;;;;;;7.70;7.10;;;;;;;9.17;66.50;100375.47;685560;28;1188;-82
2023/04/02 00:04:21;;;;;;;7.78;7.10;;;;;;;9.14;66.66;100377.97;688066;28;1320;-83
2023/04/02 00:04:41;;;;;;;8.00;7.25;;;;;;;9.05;66.64;100361.28;682765;28;1289;-83
2023/04/02 00:05:18;;;;;;;8.17;7.37;;;;;;;9.15;66.61;100383.25;682753;29;1144;-82
2023/04/02 00:05:51;;;;;;;8.07;7.38;;;;;;;9.12;66.46;100367.53;685505;28;1079;-84
2023/04/02 00:06:29;;;;;;;8.10;7.30;;;;;;;9.13;66.91;100373.63;685703;28;1085;-83
2023/04/02 00:07:29;;;;;;;7.90;7.10;;;;;;;9.07;66.56;100368.28;690744;28;1150;-83
2023/04/02 00:07:52;;;;;;;7.90;7.20;;;;;;;9.07;66.55;100373.47;688215;28;1069;-85
2023/04/02 00:08:22;;;;;;;7.80;7.10;;;;;;;9.10;66.41;100376.16;685664;28;1233;-83
2023/04/02 00:08:42;;;;;;;8.20;7.50;;;;;;;9.09;66.81;100377.84;685462;28;1918;-84
2023/04/02 00:09:12;;;;;;;8.00;7.30;;;;;;;9.10;66.52;100386.56;682843;29;1093;-83
2023/04/02 00:09:36;;;;;;;7.60;6.90;;;;;;;9.00;66.68;100362.88;682868;29;1261;-84
2023/04/02 00:09:57;;;;;;;7.72;7.03;;;;;;;9.09;66.79;100379.59;685607;28;1257;-84
2023/04/02 00:10:38;;;;;;;7.78;7.07;;;;;;;8.96;66.51;100370.56;682872;29;1241;-84
2023/04/02 00:11:01;;;;;;;8.10;7.40;;;;;;;8.98;66.77;100367.13;682949;29;1072;-83
2023/04/02 00:11:32;;;;;;;8.55;7.75;;;;;;;9.01;66.57;100376.75;682847;29;1548;-83
2023/04/02 00:11:55;;;;;;;8.85;8.05;;;;;;;8.97;66.97;100378.41;685442;28;1099;-83
2023/04/02 00:12:18;;;;;;;8.73;7.93;;;;;;;8.95;66.44;100371.41;688191;28;1136;-81
2023/04/02 00:12:38;;;;;;;8.30;7.50;;;;;;;8.96;66.62;100374.03;685529;28;1251;-83
2023/04/02 00:13:02;;;;;;;8.10;7.30;;;;;;;8.91;66.32;100368.69;685579;28;970;-83
2023/04/02 00:13:24;;;;;;;8.13;7.43;;;;;;;8.96;66.40;100373.16;685512;28;1380;-83
2023/04/02 00:13:48;;;;;;;8.30;7.60;;;;;;;8.90;66.71;100363.44;687128;28;1095;-83
2023/04/02 00:14:14;;;;;;;8.15;7.45;;;;;;;9.04;66.84;100384.69;682915;28;1290;-82
2023/04/02 00:14:35;;;;;;;7.97;7.28;;;;;;;9.04;66.54;100390.75;682689;29;1492;-82
2023/04/02 00:14:57;;;;;;;7.90;7.20;;;;;;;8.95;66.60;100379.22;688199;28;1304;-83
2023/04/02 00:15:18;;;;;;;8.30;7.55;;;;;;;8.92;66.55;100369.59;690841;28;1118;-85
2023/04/02 00:15:42;;;;;;;8.20;7.50;;;;;;;8.91;66.73;100378.25;690974;28;1215;-85
2023/04/02 00:16:06;;;;;;;8.00;7.30;;;;;;;8.90;66.39;100376.44;682813;28;1359;-83
2023/04/02 00:16:27;;;;;;;7.80;7.10;;;;;;;8.96;66.70;100379.25;685473;28;1291;-83
2023/04/02 00:16:50;;;;;;;7.70;7.00;;;;;;;9.01;66.57;100393.28;682518;29;1122;-84
2023/04/02 00:17:11;;;;;;;7.70;7.00;;;;;;;8.91;66.73;100384.31;688275;28;1398;-83
2023/04/02 00:17:31;;;;;;;7.78;7.13;;;;;;;8.93;66.65;100392.19;690990;28;1209;-84
2023/04/02 00:17:52;;;;;;;7.70;7.10;;;;;;;8.90;66.55;100381.66;685470;28;1080;-82
2023/04/02 00:18:18;;;;;;;7.45;6.85;;;;;;;8.87;66.35;100377.28;685620;28;1211;-83
2023/04/02 00:18:45;;;;;;;7.38;6.78;;;;;;;8.95;66.44;100395.69;685514;28;1100;-83
2023/04/02 00:19:14;;;;;;;7.80;7.10;;;;;;;8.89;66.54;100379.91;688117;28;1964;-85
2023/04/02 00:19:59;;;;;;;7.90;7.10;;;;;;;8.90;66.83;100394.66;685528;28;1353;-84
2023/04/02 00:20:21;;;;;;;7.68;6.88;;;;;;;8.89;66.28;100387.72;682783;29;1359;-83
2023/04/02 00:20:47;;;;;;;7.70;7.00;;;;;;;8.90;66.25;100390.38;682884;29;1226;-84
2023/04/02 00:21:24;;;;;;;7.30;6.60;;;;;;;8.88;66.66;100391.16;682891;29;1116;-83
2023/04/02 00:21:46;;;;;;;7.53;6.82;;;;;;;8.89;66.40;100396.41;685596;28;1018;-82
2023/04/02 00:22:14;;;;;;;7.75;7.05;;;;;;;8.91;66.54;100399.06;690797;28;1119;-82
2023/04/02 00:22:43;;;;;;;7.32;6.63;;;;;;;8.88;66.49;100399.84;685580;28;2040;-82
2023/04/02 00:23:05;;;;;;;6.75;6.25;;;;;;;8.82;66.71;100385.75;682607;29;1137;-84
2023/04/02 00:23:27;;;;;;;6.97;6.40;;;;;;;8.82;66.69;100388.38;685557;28;1233;-83
2023/04/02 00:23:47;;;;;;;6.95;6.35;;;;;;;8.78;66.49;100390.00;682755;29;1014;-84
2023/04/02 00:24:18;;;;;;;6.90;6.30;;;;;;;8.80;66.47;100390.03;680143;29;1145;-83
2023/04/02 00:24:39;;;;;;;8.32;6.30;;;;;;;8.83;66.42;100396.22;680256;29;1051;-82
2023/04/02 00:25:06;;;;;;;8.97;6.70;;;;;;;8.88;66.68;100405.06;682914;29;1028;-85
2023/04/02 00:25:32;;;;;;;7.00;6.30;;;;;;;8.81;66.50;100405.72;685564;28;973;-82
2023/04/02 00:25:53;;;;;;;6.78;6.18;;;;;;;8.79;66.53;100403.91;685974;28;1125;-84
2023/04/02 00:26:30;;;;;;;6.97;6.37;;;;;;;8.81;66.53;100407.41;685561;28;1167;-83
2023/04/02 00:26:52;;;;;;;7.00;6.40;;;;;;;8.79;66.56;100412.59;680130;29;1182;-83
2023/04/02 00:27:14;;;;;;;6.80;6.20;;;;;;;8.84;66.14;100412.72;680291;29;1023;-84
2023/04/02 00:27:35;;;;;;;6.80;6.20;;;;;;;8.81;66.09;100407.41;683021;29;844;-83
2023/04/02 00:27:56;;;;;;;6.70;6.20;;;;;;;8.76;66.28;100402.97;685396;28;1170;-83
2023/04/02 00:28:22;;;;;;;6.80;6.20;;;;;;;8.81;66.16;100408.31;685616;28;1029;-84
2023/04/02 00:28:42;;;;;;;6.68;6.07;;;;;;;8.74;66.21;100401.16;685529;28;1918;-83
2023/04/02 00:29:05;;;;;;;6.70;6.10;;;;;;;8.81;66.47;100415.22;682693;28;1210;-83
2023/04/02 00:29:25;;;;;;;6.60;6.00;;;;;;;8.81;66.34;100420.44;685608;28;1084;-83
2023/04/02 00:29:48;;;;;;;6.50;5.90;;;;;;;8.72;66.27;100403.72;685493;28;1015;-82
2023/04/02 00:30:13;;;;;;;6.55;5.95;;;;;;;8.88;66.05;100399.84;685437;28;1327;-83
2023/04/02 00:30:34;;;;;;;6.32;5.72;;;;;;;9.10;65.62;100416.06;682848;29;891;-83
2023/04/02 00:30:58;;;;;;;6.90;5.50;;;;;;;9.16;65.15;100405.81;682738;29;1143;-83
2023/04/02 00:31:19;;;;;;;6.85;5.40;;;;;;;9.28;65.08;100413.09;682723;29;1038;-83
2023/04/02 00:31:43;;;;;;;6.72;5.30;;;;;;;9.29;64.37;100411.38;688201;28;1406;-83
2023/04/02 00:32:04;;;;;;;6.15;5.40;;;;;;;9.36;64.49;100415.94;687925;28;994;-83
2023/04/02 00:32:29;;;;;;;5.85;5.25;;;;;;;9.38;64.29;100410.75;682910;29;1112;-82
2023/04/02 00:32:51;;;;;;;5.80;5.20;;;;;;;9.39;64.26;100412.53;682726;29;1109;-81
2023/04/02 00:33:16;;;;;;;5.57;5.03;;;;;;;9.38;64.26;100410.75;685512;28;1140;-80
2023/04/02 00:33:37;;;;;;;5.70;5.13;;;;;;;9.45;63.84;100420.47;685541;28;1061;-81
2023/04/02 00:34:00;;;;;;;5.70;5.10;;;;;;;9.39;63.92;100413.41;682732;29;1123;-81
2023/04/02 00:34:26;;;;;;;5.63;5.03;;;;;;;9.35;64.04;100411.56;682750;29;1355;-81
2023/04/02 00:34:48;;;;;;;5.78;5.18;;;;;;;9.47;63.72;100429.25;682818;29;1114;-81
2023/04/02 00:35:12;;;;;;;5.95;5.18;;;;;;;9.43;63.80;100419.56;682873;29;1402;-80
2023/04/02 00:35:38;;;;;;;5.75;5.00;;;;;;;9.41;64.16;100421.25;682878;28;1149;-81
2023/04/02 00:35:59;;;;;;;5.85;5.13;;;;;;;9.36;63.78;100415.03;680211;28;1212;-81
2023/04/02 00:36:23;;;;;;;6.30;5.45;;;;;;;9.36;63.72;100413.31;682673;29;1206;-81
2023/04/02 00:36:45;;;;;;;6.25;5.40;;;;;;;9.42;64.09;100418.69;685395;28;1033;-81
2023/04/02 00:37:06;;;;;;;5.90;5.30;;;;;;;9.35;63.93;100414.16;685477;28;1124;-80
2023/04/02 00:37:37;;;;;;;5.55;4.95;;;;;;;9.45;63.99;100430.91;688203;28;1109;-81
2023/04/02 00:37:58;;;;;;;5.45;4.80;;;;;;;9.41;64.03;100431.69;688136;28;1191;-80
2023/04/02 00:38:26;;;;;;;5.78;5.10;;;;;;;9.45;63.99;100434.41;688118;28;1046;-80
2023/04/02 00:38:47;;;;;;;5.68;5.07;;;;;;;9.45;64.16;100433.50;680078;29;1103;-80
2023/04/02 00:39:15;;;;;;;5.55;4.90;;;;;;;9.38;63.78;100421.16;682769;29;1308;-83
2023/04/02 00:39:41;;;;;;;5.32;4.78;;;;;;;9.39;63.55;100428.16;685454;28;1120;-81
2023/04/02 00:40:14;;;;;;;5.72;4.72;;;;;;;9.37;63.87;100427.22;687972;28;1245;-81
2023/04/02 00:40:38;;;;;;;6.00;4.97;;;;;;;9.45;63.89;100429.19;688342;28;820;-80
2023/04/02 00:41:01;;;;;;;6.10;4.90;;;;;;;9.45;63.79;100443.94;685470;28;1298;-81
2023/04/02 00:41:28;;;;;;;5.57;4.65;;;;;;;9.45;63.57;100433.50;685578;28;1030;-81
2023/04/02 00:41:53;;;;;;;5.95;5.20;;;;;;;9.38;63.82;100426.38;682804;29;1069;-81
2023/04/02 00:42:16;;;;;;;6.30;4.90;;;;;;;9.42;64.02;100433.44;682896;29;1082;-80
2023/04/02 00:42:39;;;;;;;5.93;4.70;;;;;;;9.38;63.81;100426.38;685620;28;1064;-82
2023/04/02 00:43:03;;;;;;;5.55;4.93;;;;;;;9.44;64.08;100436.94;685403;28;1487;-80
2023/04/02 00:43:29;;;;;;;5.38;4.85;;;;;;;9.41;63.93;100436.88;682823;29;1352;-81
2023/04/02 00:43:50;;;;;;;5.13;4.63;;;;;;;9.38;64.07;100434.19;682768;29;1376;-81
2023/04/02 00:44:20;;;;;;;4.95;4.45;;;;;;;9.42;63.73;100441.25;685515;28;1229;-81
2023/04/02 00:44:44;;;;;;;5.05;4.55;;;;;;;9.39;63.96;100443.78;685467;28;1025;-81
2023/04/02 00:45:17;;;;;;;5.30;4.80;;;;;;;9.34;64.16;100434.94;682705;29;1365;-81
2023/04/02 00:45:40;;;;;;;5.30;4.80;;;;;;;9.36;63.83;100439.38;681078;29;1066;-82
2023/04/02 00:46:09;;;;;;;5.30;4.80;;;;;;;9.29;63.80;100434.81;683793;28;1287;-82
2023/04/02 00:46:48;;;;;;;4.95;4.45;;;;;;;9.31;64.33;100436.63;685565;28;1249;-81
2023/04/02 00:47:25;;;;;;;5.10;4.60;;;;;;;9.27;64.24;100434.78;688213;28;999;-81
2023/04/02 00:47:46;;;;;;;5.18;4.60;;;;;;;9.32;64.16;100447.91;685461;28;1225;-80
2023/04/02 00:48:31;;;;;;;5.20;4.70;;;;;;;9.26;64.22;100437.31;685542;28;1204;-82
2023/04/02 00:49:07;;;;;;;5.72;4.90;;;;;;;9.25;64.27;100430.34;688138;28;1120;-82
2023/04/02 00:49:35;;;;;;;6.50;5.00;;;;;;;9.26;64.28;100443.44;688122;28;1399;-80
2023/04/02 00:50:01;;;;;;;6.55;5.00;;;;;;;9.24;63.94;100442.50;682720;28;1047;-81
2023/04/02 00:50:35;;;;;;;5.50;4.78;;;;;;;9.22;64.06;100436.34;682857;28;1142;-81
2023/04/02 00:50:59;;;;;;;5.38;4.88;;;;;;;9.21;64.00;100434.59;682605;29;1285;-81
2023/04/02 00:51:31;;;;;;;5.78;5.18;;;;;;;9.31;64.00;100452.25;685400;28;1117;-81
2023/04/02 00:51:57;;;;;;;5.78;5.18;;;;;;;9.21;64.35;100433.72;685320;28;1073;-81
2023/04/02 00:52:23;;;;;;;5.68;5.07;;;;;;;9.26;64.25;100448.63;685580;28;1181;-79
2023/04/02 00:52:47;;;;;;;5.30;4.80;;;;;;;9.32;64.22;100455.72;685513;28;2017;-81
2023/04/02 00:53:29;;;;;;;5.22;4.72;;;;;;;9.33;64.39;100460.09;685406;28;1034;-81
2023/04/02 00:53:59;;;;;;;5.60;5.10;;;;;;;9.23;64.33;100451.16;682697;29;1081;-82
2023/04/02 00:54:24;;;;;;;5.95;5.35;;;;;;;9.21;64.23;100439.81;688153;28;1190;-82
2023/04/02 00:55:03;;;;;;;5.57;5.07;;;;;;;9.30;64.45;100460.91;688255;28;1002;-83
2023/04/02 00:55:30;;;;;;;5.65;5.05;;;;;;;9.30;64.17;100463.53;685512;28;1337;-83
2023/04/02 00:55:52;;;;;;;7.38;5.38;;;;;;;9.24;64.36;100450.31;688210;28;1384;-83
2023/04/02 00:56:21;;;;;;;7.75;5.50;;;;;;;9.31;64.35;100467.00;685411;28;1450;-82
2023/04/02 00:56:45;;;;;;;6.00;5.10;;;;;;;9.29;64.31;100469.53;685958;28;1049;-83
2023/04/02 00:57:19;;;;;;;5.63;4.90;;;;;;;9.31;64.30;100465.28;680717;29;1136;-84
2023/04/02 00:57:43;;;;;;;5.75;5.20;;;;;;;9.29;64.18;100463.47;685989;28;1217;-83
2023/04/02 00:58:18;;;;;;;5.93;5.32;;;;;;;9.31;64.30;100473.09;686021;28;1246;-82
2023/04/02 00:58:39;;;;;;;6.47;5.60;;;;;;;9.24;64.08;100458.13;688742;28;1056;-82
2023/04/02 00:59:00;;;;;;;6.85;5.57;;;;;;;9.22;64.14;100465.00;688543;28;1232;-83
2023/04/02 00:59:32;;;;;;;6.53;5.30;;;;;;;9.22;64.10;100456.31;686036;28;1107;-83
2023/04/02 01:00:06;;;;;;;6.47;5.40;;;;;;;9.20;64.31;100458.88;688556;28;1198;-82
2023/04/02 01:00:34;;;;;;;6.10;5.50;;;;;;;9.18;64.18;100455.34;688645;28;1323;-83
2023/04/02 01:00:58;;;;;;;6.00;5.40;;;;;;;9.30;64.08;100486.97;688692;28;1473;-83
2023/04/02 01:01:23;;;;;;;6.20;5.60;;;;;;;9.24;64.15;100476.34;688690;28;1099;-83
2023/04/02 01:01:53;;;;;;;6.20;5.60;;;;;;;9.22;64.27;100466.72;686125;28;1124;-82
2023/04/02 01:02:17;;;;;;;6.30;5.70;;;;;;;9.31;64.31;100480.91;686109;28;1121;-83
2023/04/02 01:02:39;;;;;;;6.10;5.45;;;;;;;9.22;64.23;100472.81;683303;29;1239;-82
2023/04/02 01:03:27;;;;;;;6.13;5.30;;;;;;;9.20;64.15;100477.09;683328;29;1260;-83
2023/04/02 01:03:57;;;;;;;8.80;5.60;;;;;;;9.21;64.73;100480.59;681123;28;1197;-83
2023/04/02 01:04:35;;;;;;;6.28;5.53;;;;;;;9.21;64.34;100480.59;683302;29;1220;-83
2023/04/02 01:05:01;;;;;;;6.15;5.50;;;;;;;9.16;64.18;100472.66;683245;29;1010;-83
2023/04/02 01:05:22;;;;;;;6.70;5.60;;;;;;;9.26;64.45;100486.78;680662;29;1227;-82
2023/04/02 01:05:47;;;;;;;7.25;5.80;;;;;;;9.27;64.42;100492.06;686062;28;1255;-83
2023/04/02 01:06:14;;;;;;;6.85;5.60;;;;;;;9.19;64.08;100483.13;683397;29;976;-83
2023/04/02 01:06:37;;;;;;;7.38;5.88;;;;;;;9.12;64.20;100471.69;685941;28;891;-83
2023/04/02 01:07:05;;;;;;;6.53;5.78;;;;;;;9.22;64.27;100497.97;685889;28;982;-83
2023/04/02 01:07:57;;;;;;;7.43;5.60;;;;;;;9.25;64.31;100504.16;685886;28;1073;-80
2023/04/02 01:08:30;;;;;;;5.97;5.38;;;;;;;9.12;64.38;100478.59;686268;28;1081;-81
2023/04/02 01:09:09;;;;;;;6.10;5.50;;;;;;;9.26;64.41;100495.50;690167;28;1972;-80
2023/04/02 01:10:02;;;;;;;6.28;5.60;;;;;;;9.15;64.28;100483.91;694135;28;1215;-80
2023/04/02 01:10:49;;;;;;;7.70;5.68;;;;;;;9.14;64.58;100485.63;694148;28;1021;-80
2023/04/02 01:11:35;;;;;;;5.72;5.15;;;;;;;9.22;64.41;100498.84;686209;28;1439;-80
2023/04/02 01:12:23;;;;;;;6.60;5.70;;;;;;;9.14;64.50;100495.13;688546;28;1178;-83
2023/04/02 01:13:07;;;;;;;6.50;5.60;;;;;;;9.21;64.50;100507.50;687524;28;1150;-83
2023/04/02 01:13:44;;;;;;;8.10;5.90;;;;;;;9.21;64.51;100504.88;688551;28;1096;-84
2023/04/02 01:14:18;;;;;;;7.75;6.05;;;;;;;9.12;64.46;100507.22;688491;28;1306;-83
2023/04/02 01:15:02;;;;;;;6.20;5.47;;;;;;;9.13;64.40;100506.38;688670;28;1334;-83
2023/04/02 01:15:49;;;;;;;6.28;5.68;;;;;;;9.00;64.83;100495.63;688749;28;1103;-82
2023/04/02 01:16:28;;;;;;;8.20;5.53;;;;;;;8.97;64.70;100495.50;688665;28;1038;-83
2023/04/02 01:17:04;;;;;;;8.65;5.35;;;;;;;9.04;64.20;100499.22;685743;28;1290;-82
2023/04/02 01:17:53;;;;;;;6.53;5.53;;;;;;;9.04;64.75;100510.47;683354;29;1047;-84
2023/04/02 01:18:49;;;;;;;6.40;5.70;;;;;;;9.07;64.48;100519.25;683272;29;984;-83
2023/04/02 01:19:47;;;;;;;7.10;5.70;;;;;;;9.00;64.88;100519.06;689013;28;1265;-83
2023/04/02 01:20:27;;;;;;;6.28;5.64;;;;;;;9.10;64.89;100519.31;684931;28;1886;-82
2023/04/02 01:21:06;;;;;;;6.30;5.60;;;;;;;9.01;64.42;100502.59;686022;28;1142;-83
2023/04/02 01:21:54;;;;;;;8.32;5.90;;;;;;;9.15;64.58;100517.75;683358;29;1263;-82
2023/04/02 01:22:33;;;;;;;7.80;5.80;;;;;;;9.10;64.56;100519.31;685919;28;1181;-83
2023/04/02 01:23:06;;;;;;;8.25;6.10;;;;;;;8.96;64.54;100498.97;680503;29;1054;-83
2023/04/02 01:24:00;;;;;;;8.18;6.30;;;;;;;8.99;64.43;100501.69;680702;29;1127;-82
2023/04/02 01:24:25;;;;;;;6.53;5.82;;;;;;;9.01;64.54;100512.09;683121;28;1314;-83
2023/04/02 01:24:47;;;;;;;6.68;5.72;;;;;;;9.08;64.72;100518.41;683264;29;1355;-83
2023/04/02 01:25:16;;;;;;;7.30;5.60;;;;;;;8.93;64.48;100503.19;683374;29;982;-83
2023/04/02 01:25:37;;;;;;;6.72;5.30;;;;;;;9.04;64.72;100525.22;685919;28;1252;-84
2023/04/02 01:26:07;;;;;;;6.28;5.45;;;;;;;8.93;64.65;100517.09;685866;28;1233;-83
2023/04/02 01:26:50;;;;;;;6.32;5.65;;;;;;;8.96;64.89;100526.72;688549;28;1153;-82
2023/04/02 01:27:16;;;;;;;6.00;5.40;;;;;;;8.93;64.70;100517.09;688562;28;1147;-82
2023/04/02 01:27:46;;;;;;;6.40;5.70;;;;;;;8.93;64.54;100517.09;683246;28;1229;-82
2023/04/02 01:28:25;;;;;;;7.00;5.82;;;;;;;8.87;64.95;100533.41;685981;28;1157;-83
2023/04/02 01:29:23;;;;;;;7.10;5.90;;;;;;;8.90;64.96;100537.81;683257;29;1915;-83
2023/04/02 01:29:55;;;;;;;6.60;5.40;;;;;;;8.83;64.86;100520.25;691393;28;1134;-82
2023/04/02 01:30:17;;;;;;;5.80;5.20;;;;;;;8.84;65.00;100524.63;685865;28;1319;-83
2023/04/02 01:30:40;;;;;;;5.80;5.20;;;;;;;8.85;64.90;100529.00;683134;29;1391;-82
2023/04/02 01:31:01;;;;;;;5.80;5.20;;;;;;;8.88;64.81;100534.28;686039;28;1170;-83
2023/04/02 01:31:23;;;;;;;7.68;5.22;;;;;;;8.92;64.68;100543.97;685887;28;1357;-82
2023/04/02 01:31:45;;;;;;;7.85;5.28;;;;;;;8.91;64.95;100537.00;683334;29;1190;-82
2023/04/02 01:32:16;;;;;;;8.13;5.50;;;;;;;8.83;64.92;100525.47;680644;29;1025;-83
2023/04/02 01:32:38;;;;;;;6.57;5.60;;;;;;;8.81;64.97;100521.91;683258;29;1203;-83
2023/04/02 01:32:59;;;;;;;7.05;5.32;;;;;;;8.88;64.80;100539.47;685860;28;1284;-82
2023/04/02 01:33:29;;;;;;;6.63;5.30;;;;;;;8.92;64.86;100536.16;683191;29;1296;-82
2023/04/02 01:33:50;;;;;;;6.53;5.57;;;;;;;8.85;64.48;100529.84;683199;29;970;-81
2023/04/02 01:34:15;;;;;;;6.65;5.53;;;;;;;8.86;64.71;100531.63;683282;28;1254;-82
2023/04/02 01:34:37;;;;;;;6.68;5.40;;;;;;;8.88;64.96;100544.69;688522;28;1358;-82
2023/04/02 01:34:58;;;;;;;7.78;5.55;;;;;;;8.80;64.98;100531.44;685864;28;1885;-83
2023/04/02 01:35:20;;;;;;;7.83;5.70;;;;;;;8.82;64.63;100531.47;683261;29;1106;-83
2023/04/02 01:35:47;;;;;;;8.20;5.68;;;;;;;8.87;64.66;100540.31;683339;28;1019;-83
2023/04/02 01:36:17;;;;;;;7.15;5.60;;;;;;;8.92;64.80;100551.78;683393;28;1052;-83
2023/04/02 01:36:51;;;;;;;5.95;5.28;;;;;;;8.90;64.92;100546.50;685858;28;1181;-82
2023/04/02 01:37:45;;;;;;;5.95;5.35;;;;;;;8.81;64.95;100543.63;685959;28;1022;-84
2023/04/02 01:38:14;;;;;;;7.10;5.90;;;;;;;8.78;65.21;100535.69;680846;29;1237;-82
2023/04/02 01:38:51;;;;;;;7.63;5.40;;;;;;;8.87;64.74;100543.81;682627;29;1344;-82
2023/04/02 01:39:30;;;;;;;5.82;5.00;;;;;;;8.81;65.04;100547.94;678555;29;1127;-83
2023/04/02 01:40:05;;;;;;;6.32;5.20;;;;;;;8.83;64.93;100554.09;683110;29;2035;-82
2023/04/02 01:40:37;;;;;;;6.57;5.30;;;;;;;8.75;65.24;100533.91;683342;29;1121;-82
2023/04/02 01:41:12;;;;;;;5.50;4.90;;;;;;;8.80;64.86;100554.88;680648;29;1141;-82
2023/04/02 01:41:43;;;;;;;5.93;4.82;;;;;;;8.73;64.85;100550.31;683310;29;828;-82
2023/04/02 01:42:12;;;;;;;6.13;4.50;;;;;;;8.76;65.03;100559.09;683209;29;1029;-82
2023/04/02 01:42:53;;;;;;;5.47;4.47;;;;;;;8.77;64.98;100552.16;685972;28;1516;-82
2023/04/02 01:43:52;;;;;;;5.18;4.65;;;;;;;8.84;65.29;100555.84;682374;28;1327;-82
2023/04/02 01:44:42;;;;;;;4.90;4.40;;;;;;;8.80;64.78;100548.75;683114;28;1315;-83
2023/04/02 01:45:15;;;;;;;4.82;4.28;;;;;;;8.80;64.80;100541.84;685488;28;1211;-82
2023/04/02 01:45:36;;;;;;;4.95;4.45;;;;;;;8.82;64.84;100560.09;688642;28;903;-82
2023/04/02 01:45:58;;;;;;;5.20;4.70;;;;;;;8.83;64.75;100552.34;685962;28;990;-83
2023/04/02 01:46:30;;;;;;;5.45;4.82;;;;;;;8.74;64.69;100557.28;685825;28;1210;-83
2023/04/02 01:46:51;;;;;;;5.95;4.82;;;;;;;8.69;64.94;100541.50;682346;28;1262;-84
2023/04/02 01:47:16;;;;;;;5.35;4.80;;;;;;;8.69;64.97;100543.22;686011;28;971;-83
2023/04/02 01:47:37;;;;;;;6.03;4.95;;;;;;;8.74;64.97;100562.47;683233;29;1123;-83
2023/04/02 01:47:58;;;;;;;5.88;4.82;;;;;;;8.73;64.90;100551.16;688479;28;1122;-83
2023/04/02 01:48:23;;;;;;;5.45;4.80;;;;;;;8.63;65.05;100554.31;683179;28;1192;-82
2023/04/02 01:48:44;;;;;;;5.50;5.00;;;;;;;8.77;65.23;100566.06;685869;28;1974;-83
2023/04/02 01:49:15;;;;;;;5.80;5.20;;;;;;;8.70;65.20;100556.28;685779;28;1225;-83
2023/04/02 01:49:35;;;;;;;6.03;5.28;;;;;;;8.76;65.21;100566.91;688644;28;847;-82
2023/04/02 01:50:03;;;;;;;6.00;5.15;;;;;;;8.69;65.12;100551.03;685920;28;1206;-82
2023/04/02 01:50:35;;;;;;;6.28;5.00;;;;;;;8.73;65.13;100561.56;680572;29;1198;-83
2023/04/02 01:50:58;;;;;;;6.57;4.93;;;;;;;8.66;65.01;100544.00;685771;28;1010;-83
2023/04/02 01:51:35;;;;;;;6.70;5.20;;;;;;;8.66;64.91;100554.41;685900;28;1187;-83
2023/04/02 01:51:59;;;;;;;6.00;5.30;;;;;;;8.73;65.20;100566.78;685964;28;1040;-82
2023/04/02 01:52:40;;;;;;;5.70;5.10;;;;;;;8.81;65.11;100572.25;683190;29;1068;-83
2023/04/02 01:53:08;;;;;;;6.20;5.07;;;;;;;8.81;65.20;100579.16;685896;28;1030;-83
2023/04/02 01:53:30;;;;;;;8.05;5.20;;;;;;;8.71;65.33;100563.25;683166;29;1391;-83
2023/04/02 01:53:51;;;;;;;8.23;5.40;;;;;;;8.72;64.91;100565.00;683154;28;1423;-82
2023/04/02 01:54:15;;;;;;;7.28;5.38;;;;;;;8.73;65.08;100573.72;683223;29;1161;-82
2023/04/02 01:54:37;;;;;;;6.55;5.57;;;;;;;8.72;64.99;100570.22;688626;28;824;-82
2023/04/02 01:54:58;;;;;;;6.30;5.50;;;;;;;8.75;65.02;100567.72;683125;28;1202;-83
2023/04/02 01:55:39;;;;;;;6.53;5.30;;;;;;;8.60;65.12;100555.06;683061;29;1220;-82
2023/04/02 01:56:01;;;;;;;6.13;5.20;;;;;;;8.75;64.95;100579.84;683027;29;1128;-82
2023/04/02 01:56:22;;;;;;;6.70;5.32;;;;;;;8.69;64.84;100572.72;683085;29;1108;-82
2023/04/02 01:56:45;;;;;;;6.53;5.00;;;;;;;8.73;64.70;100584.13;685860;28;1082;-83
2023/04/02 01:57:08;;;;;;;6.70;4.90;;;;;;;8.68;65.02;100568.38;683170;28;1122;-83
2023/04/02 01:57:28;;;;;;;6.00;5.00;;;;;;;8.68;64.67;100567.47;685957;28;1196;-82
2023/04/02 01:57:52;;;;;;;6.07;5.20;;;;;;;8.69;65.12;100584.84;688565;28;1084;-83
2023/04/02 01:58:18;;;;;;;5.95;5.10;;;;;;;8.72;65.20;100597.97;688650;28;1156;-83
2023/04/02 01:58:39;;;;;;;6.10;5.30;;;;;;;8.63;65.17;100577.72;685948;28;1171;-82
2023/04/02 01:59:02;;;;;;;5.70;5.10;;;;;;;8.68;65.04;100583.97;688467;28;1125;-82
2023/04/02 01:59:25;;;;;;;5.53;4.90;;;;;;;8.67;64.98;100584.81;688613;28;1064;-82
2023/04/02 01:59:51;;;;;;;6.07;5.00;;;;;;;8.65;64.91;100589.06;685938;28;1128;-83
2023/04/02 02:00:15;;;;;;;6.15;4.82;;;;;;;8.64;65.49;100592.50;688593;28;1189;-83
2023/04/02 02:00:46;;;;;;;7.30;4.88;;;;;;;8.65;65.04;100589.06;685962;28;1103;-82
2023/04/02 02:01:15;;;;;;;6.50;4.60;;;;;;;8.63;65.27;100585.53;683086;29;1226;-82
2023/04/02 02:01:50;;;;;;;4.97;4.47;;;;;;;8.71;64.92;100596.16;683135;29;1461;-82
2023/04/02 02:02:13;;;;;;;5.30;4.80;;;;;;;8.61;65.24;100577.63;688617;28;1115;-83
2023/04/02 02:02:35;;;;;;;5.57;5.00;;;;;;;8.63;65.09;100576.03;685909;28;1220;-83
2023/04/02 02:02:55;;;;;;;6.60;5.10;;;;;;;8.70;64.95;100594.41;683156;28;1183;-82
2023/04/02 02:03:19;;;;;;;6.53;4.70;;;;;;;8.74;64.81;100594.56;680695;29;1117;-84
2023/04/02 02:03:42;;;;;;;5.32;4.50;;;;;;;8.66;64.97;100596.03;685902;28;1203;-83
2023/04/02 02:04:03;;;;;;;5.10;4.53;;;;;;;8.66;64.96;100595.16;688507;28;1081;-83
2023/04/02 02:04:24;;;;;;;5.30;4.80;;;;;;;8.62;65.21;100588.97;691188;28;1193;-82
2023/04/02 02:04:45;;;;;;;5.80;4.85;;;;;;;8.66;65.06;100592.56;686011;28;1074;-82
2023/04/02 02:05:12;;;;;;;5.50;4.70;;;;;;;8.61;65.12;100584.56;688359;28;1178;-83
2023/04/02 02:05:33;;;;;;;6.18;4.63;;;;;;;8.69;65.12;100603.94;688516;28;1135;-82
2023/04/02 02:05:54;;;;;;;5.75;4.70;;;;;;;8.58;64.77;100579.25;685690;28;1151;-82
2023/04/02 02:06:17;;;;;;;6.05;4.63;;;;;;;8.60;64.86;100596.69;683301;29;1189;-81
2023/04/02 02:06:38;;;;;;;6.30;4.60;;;;;;;8.58;65.26;100602.66;680550;29;1038;-82
2023/04/02 02:07:01;;;;;;;6.30;4.65;;;;;;;8.54;65.13;100599.06;682908;29;1398;-82
2023/04/02 02:07:23;;;;;;;5.70;4.60;;;;;;;8.60;65.16;100608.81;682881;28;1308;-82
2023/04/02 02:07:48;;;;;;;5.55;4.57;;;;;;;8.53;65.18;100604.25;680516;29;1310;-82
2023/04/02 02:08:25;;;;;;;5.90;4.60;;;;;;;8.58;65.23;100607.84;683166;29;1128;-82
2023/04/02 02:08:50;;;;;;;4.85;4.35;;;;;;;8.63;65.22;100611.53;685745;28;1892;-82
2023/04/02 02:09:18;;;;;;;4.50;4.10;;;;;;;8.56;65.21;100604.34;685956;28;1022;-84
2023/04/02 02:09:39;;;;;;;4.90;4.40;;;;;;;8.61;65.01;100605.38;685860;28;1116;-83
2023/04/02 02:10:00;;;;;;;4.82;4.32;;;;;;;8.61;65.12;100607.97;685785;28;1101;-83
2023/04/02 02:10:28;;;;;;;5.28;4.78;;;;;;;8.52;64.88;100592.94;680493;29;1279;-83
2023/04/02 02:10:49;;;;;;;5.93;5.13;;;;;;;8.57;65.35;100613.91;683171;29;1107;-82
2023/04/02 02:11:14;;;;;;;6.70;5.38;;;;;;;8.59;64.94;100610.53;685767;28;1444;-82
2023/04/02 02:11:35;;;;;;;6.32;5.28;;;;;;;8.60;64.78;100606.22;688471;28;1450;-83
2023/04/02 02:11:58;;;;;;;5.50;4.90;;;;;;;8.67;64.95;100617.72;685798;28;1196;-83
2023/04/02 02:12:18;;;;;;;5.20;4.70;;;;;;;8.63;65.13;100611.53;683105;28;1420;-82
2023/04/02 02:12:41;;;;;;;5.60;5.00;;;;;;;8.63;64.99;100606.34;683153;29;1180;-82
2023/04/02 02:13:02;;;;;;;5.70;5.05;;;;;;;8.60;64.60;100609.69;685772;28;1080;-84
2023/04/02 02:13:24;;;;;;;6.40;5.50;;;;;;;8.65;64.92;100628.06;688586;28;1120;-82
2023/04/02 02:13:47;;;;;;;5.90;5.10;;;;;;;8.53;65.48;100604.25;685697;28;1271;-82
2023/04/02 02:14:20;;;;;;;5.95;5.03;;;;;;;8.66;64.82;100622.03;685915;28;989;-83
2023/04/02 02:14:49;;;;;;;6.45;5.30;;;;;;;8.54;64.88;100598.19;685819;28;1057;-83
2023/04/02 02:15:18;;;;;;;5.93;5.32;;;;;;;8.67;64.73;100613.44;685777;28;1045;-83
2023/04/02 02:15:39;;;;;;;6.10;5.25;;;;;;;8.58;65.03;100600.06;683165;29;1864;-82
2023/04/02 02:16:02;;;;;;;6.18;5.20;;;;;;;8.50;65.16;100605.88;683217;29;1082;-83